sensor_id;sensor_type;location;lat;lon;timestamp;P1;durP1;ratioP1;P2;durP2;ratioP2
30647;SDS011;17683;53.360;9.736;2022-11-15T00:00:53;34.97;;;23.38;;
30647;SDS011;17683;53.360;9.736;2022-11-15T00:03:20;33.58;;;21.80;;
30647;SDS011;17683;53.360;9.736;2022-11-15T00:05:47;33.95;;;21.17;;
30647;SDS011;17683;53.360;9.736;2022-11-15T00:08:13;31.63;;;21.55;;
30647;SDS011;17683;53.360;9.736;2022-11-15T00:10:39;32.55;;;22.08;;
30647;SDS011;17683;53.360;9.736;2022-11-15T00:13:06;31.52;;;21.20;;
30647;SDS011;17683;53.360;9.736;2022-11-15T00:15:36;30.25;;;19.58;;
30647;SDS011;17683;53.360;9.736;2022-11-15T00:18:03;31.35;;;20.25;;
30647;SDS011;17683;53.360;9.736;2022-11-15T00:20:29;31.73;;;20.73;;
30647;SDS011;17683;53.360;9.736;2022-11-15T00:22:56;29.83;;;19.92;;
30647;SDS011;17683;53.360;9.736;2022-11-15T00:25:22;27.95;;;19.65;;
30647;SDS011;17683;53.360;9.736;2022-11-15T00:27:47;26.83;;;18.23;;
30647;SDS011;17683;53.360;9.736;2022-11-15T00:30:13;30.50;;;18.48;;
30647;SDS011;17683;53.360;9.736;2022-11-15T00:32:39;27.20;;;18.33;;
30647;SDS011;17683;53.360;9.736;2022-11-15T00:35:05;26.08;;;17.85;;
30647;SDS011;17683;53.360;9.736;2022-11-15T00:37:30;22.45;;;15.68;;
30647;SDS011;17683;53.360;9.736;2022-11-15T00:39:56;30.60;;;16.48;;
30647;SDS011;17683;53.360;9.736;2022-11-15T00:42:22;21.92;;;14.85;;
30647;SDS011;17683;53.360;9.736;2022-11-15T00:44:47;22.17;;;15.75;;
30647;SDS011;17683;53.360;9.736;2022-11-15T00:47:13;25.45;;;16.33;;
30647;SDS011;17683;53.360;9.736;2022-11-15T00:49:39;23.42;;;15.43;;
30647;SDS011;17683;53.360;9.736;2022-11-15T00:52:05;24.05;;;15.75;;
30647;SDS011;17683;53.360;9.736;2022-11-15T00:54:31;26.17;;;16.08;;
30647;SDS011;17683;53.360;9.736;2022-11-15T00:56:57;25.25;;;15.18;;
30647;SDS011;17683;53.360;9.736;2022-11-15T00:59:22;21.70;;;15.20;;
30647;SDS011;17683;53.360;9.736;2022-11-15T01:01:48;20.00;;;14.77;;
30647;SDS011;17683;53.360;9.736;2022-11-15T01:04:14;21.15;;;14.18;;
30647;SDS011;17683;53.360;9.736;2022-11-15T01:06:39;22.90;;;15.55;;
30647;SDS011;17683;53.360;9.736;2022-11-15T01:09:05;20.85;;;14.90;;
30647;SDS011;17683;53.360;9.736;2022-11-15T01:11:31;20.42;;;14.57;;
30647;SDS011;17683;53.360;9.736;2022-11-15T01:13:57;21.00;;;13.95;;
30647;SDS011;17683;53.360;9.736;2022-11-15T01:16:22;19.90;;;14.50;;
30647;SDS011;17683;53.360;9.736;2022-11-15T01:18:48;22.35;;;14.52;;
30647;SDS011;17683;53.360;9.736;2022-11-15T01:21:15;20.58;;;14.63;;
30647;SDS011;17683;53.360;9.736;2022-11-15T01:23:42;23.80;;;14.93;;
30647;SDS011;17683;53.360;9.736;2022-11-15T01:26:09;20.10;;;13.60;;
30647;SDS011;17683;53.360;9.736;2022-11-15T01:28:37;22.60;;;14.90;;
30647;SDS011;17683;53.360;9.736;2022-11-15T01:31:15;22.83;;;15.38;;
30647;SDS011;17683;53.360;9.736;2022-11-15T01:33:42;22.10;;;15.52;;
30647;SDS011;17683;53.360;9.736;2022-11-15T01:36:11;25.02;;;15.05;;
30647;SDS011;17683;53.360;9.736;2022-11-15T01:38:38;21.90;;;14.68;;
30647;SDS011;17683;53.360;9.736;2022-11-15T01:41:03;22.33;;;13.77;;
30647;SDS011;17683;53.360;9.736;2022-11-15T01:43:31;21.85;;;15.02;;
30647;SDS011;17683;53.360;9.736;2022-11-15T01:46:04;21.92;;;15.57;;
30647;SDS011;17683;53.360;9.736;2022-11-15T01:48:48;20.40;;;14.07;;
30647;SDS011;17683;53.360;9.736;2022-11-15T01:51:16;22.10;;;15.73;;
30647;SDS011;17683;53.360;9.736;2022-11-15T01:53:45;24.45;;;14.88;;
30647;SDS011;17683;53.360;9.736;2022-11-15T01:56:16;21.58;;;14.10;;
30647;SDS011;17683;53.360;9.736;2022-11-15T01:58:44;20.48;;;13.98;;
30647;SDS011;17683;53.360;9.736;2022-11-15T02:01:12;19.60;;;14.77;;
30647;SDS011;17683;53.360;9.736;2022-11-15T02:03:46;21.75;;;14.27;;
30647;SDS011;17683;53.360;9.736;2022-11-15T02:06:17;20.70;;;14.35;;
30647;SDS011;17683;53.360;9.736;2022-11-15T02:08:44;20.10;;;13.80;;
30647;SDS011;17683;53.360;9.736;2022-11-15T02:11:10;23.52;;;14.02;;
30647;SDS011;17683;53.360;9.736;2022-11-15T02:13:36;18.88;;;13.75;;
30647;SDS011;17683;53.360;9.736;2022-11-15T02:18:37;19.23;;;13.10;;
30647;SDS011;17683;53.360;9.736;2022-11-15T02:24:16;19.15;;;13.10;;
30647;SDS011;17683;53.360;9.736;2022-11-15T02:32:10;21.98;;;14.20;;
30647;SDS011;17683;53.360;9.736;2022-11-15T02:35:20;20.35;;;12.82;;
30647;SDS011;17683;53.360;9.736;2022-11-15T02:37:56;22.88;;;13.93;;
30647;SDS011;17683;53.360;9.736;2022-11-15T02:43:37;21.70;;;13.98;;
30647;SDS011;17683;53.360;9.736;2022-11-15T02:46:39;21.75;;;13.70;;
30647;SDS011;17683;53.360;9.736;2022-11-15T02:49:31;17.42;;;12.15;;
30647;SDS011;17683;53.360;9.736;2022-11-15T02:51:59;18.50;;;12.13;;
30647;SDS011;17683;53.360;9.736;2022-11-15T02:54:28;17.45;;;13.75;;
30647;SDS011;17683;53.360;9.736;2022-11-15T02:56:56;15.18;;;11.63;;
30647;SDS011;17683;53.360;9.736;2022-11-15T03:07:29;17.13;;;12.63;;
30647;SDS011;17683;53.360;9.736;2022-11-15T03:10:06;20.65;;;12.80;;
30647;SDS011;17683;53.360;9.736;2022-11-15T03:12:51;19.55;;;13.02;;
30647;SDS011;17683;53.360;9.736;2022-11-15T03:18:15;18.25;;;12.35;;
30647;SDS011;17683;53.360;9.736;2022-11-15T03:21:09;15.70;;;11.80;;
30647;SDS011;17683;53.360;9.736;2022-11-15T03:23:38;20.25;;;13.13;;
30647;SDS011;17683;53.360;9.736;2022-11-15T03:26:07;18.83;;;12.43;;
30647;SDS011;17683;53.360;9.736;2022-11-15T03:28:38;19.80;;;13.82;;
30647;SDS011;17683;53.360;9.736;2022-11-15T03:31:12;22.95;;;13.88;;
30647;SDS011;17683;53.360;9.736;2022-11-15T03:33:59;18.73;;;13.15;;
30647;SDS011;17683;53.360;9.736;2022-11-15T03:36:28;18.83;;;12.23;;
30647;SDS011;17683;53.360;9.736;2022-11-15T03:38:58;17.25;;;11.68;;
30647;SDS011;17683;53.360;9.736;2022-11-15T03:41:39;17.42;;;12.40;;
30647;SDS011;17683;53.360;9.736;2022-11-15T03:47:03;17.92;;;12.25;;
30647;SDS011;17683;53.360;9.736;2022-11-15T03:49:57;17.27;;;12.50;;
30647;SDS011;17683;53.360;9.736;2022-11-15T03:52:25;21.55;;;13.13;;
30647;SDS011;17683;53.360;9.736;2022-11-15T03:54:56;18.77;;;12.05;;
30647;SDS011;17683;53.360;9.736;2022-11-15T03:57:24;20.23;;;14.05;;
30647;SDS011;17683;53.360;9.736;2022-11-15T03:59:49;17.65;;;11.55;;
30647;SDS011;17683;53.360;9.736;2022-11-15T04:02:15;24.05;;;13.55;;
30647;SDS011;17683;53.360;9.736;2022-11-15T04:04:41;22.60;;;12.68;;
30647;SDS011;17683;53.360;9.736;2022-11-15T04:07:06;18.40;;;12.52;;
30647;SDS011;17683;53.360;9.736;2022-11-15T04:09:32;19.52;;;12.90;;
30647;SDS011;17683;53.360;9.736;2022-11-15T04:11:58;18.85;;;12.82;;
30647;SDS011;17683;53.360;9.736;2022-11-15T04:14:23;18.98;;;13.45;;
30647;SDS011;17683;53.360;9.736;2022-11-15T04:16:49;18.50;;;12.38;;
30647;SDS011;17683;53.360;9.736;2022-11-15T04:19:15;19.95;;;12.52;;
30647;SDS011;17683;53.360;9.736;2022-11-15T04:22:00;24.80;;;13.77;;
30647;SDS011;17683;53.360;9.736;2022-11-15T04:24:45;20.33;;;12.68;;
30647;SDS011;17683;53.360;9.736;2022-11-15T04:27:10;22.23;;;13.43;;
30647;SDS011;17683;53.360;9.736;2022-11-15T04:29:38;21.35;;;13.85;;
30647;SDS011;17683;53.360;9.736;2022-11-15T04:32:04;18.95;;;12.13;;
30647;SDS011;17683;53.360;9.736;2022-11-15T04:34:32;19.10;;;12.13;;
30647;SDS011;17683;53.360;9.736;2022-11-15T04:36:58;20.48;;;12.35;;
30647;SDS011;17683;53.360;9.736;2022-11-15T04:39:41;19.40;;;12.27;;
30647;SDS011;17683;53.360;9.736;2022-11-15T04:42:07;18.48;;;12.50;;
30647;SDS011;17683;53.360;9.736;2022-11-15T04:44:34;18.25;;;12.00;;
30647;SDS011;17683;53.360;9.736;2022-11-15T04:47:00;22.05;;;12.75;;
30647;SDS011;17683;53.360;9.736;2022-11-15T04:49:26;22.65;;;12.32;;
30647;SDS011;17683;53.360;9.736;2022-11-15T04:51:52;21.33;;;12.55;;
30647;SDS011;17683;53.360;9.736;2022-11-15T04:54:17;18.33;;;11.90;;
30647;SDS011;17683;53.360;9.736;2022-11-15T04:56:43;18.95;;;12.20;;
30647;SDS011;17683;53.360;9.736;2022-11-15T04:59:09;16.70;;;11.25;;
30647;SDS011;17683;53.360;9.736;2022-11-15T05:01:34;18.60;;;12.50;;
30647;SDS011;17683;53.360;9.736;2022-11-15T05:04:00;16.55;;;12.07;;
30647;SDS011;17683;53.360;9.736;2022-11-15T05:06:44;16.33;;;11.95;;
30647;SDS011;17683;53.360;9.736;2022-11-15T05:09:14;19.55;;;12.23;;
30647;SDS011;17683;53.360;9.736;2022-11-15T05:11:41;14.90;;;11.93;;
30647;SDS011;17683;53.360;9.736;2022-11-15T05:14:06;18.98;;;11.88;;
30647;SDS011;17683;53.360;9.736;2022-11-15T05:16:32;16.00;;;11.90;;
30647;SDS011;17683;53.360;9.736;2022-11-15T05:18:58;17.25;;;11.68;;
30647;SDS011;17683;53.360;9.736;2022-11-15T05:21:23;17.08;;;11.18;;
30647;SDS011;17683;53.360;9.736;2022-11-15T05:23:49;16.52;;;10.75;;
30647;SDS011;17683;53.360;9.736;2022-11-15T05:26:15;16.27;;;11.23;;
30647;SDS011;17683;53.360;9.736;2022-11-15T05:28:42;18.70;;;11.55;;
30647;SDS011;17683;53.360;9.736;2022-11-15T05:31:10;19.02;;;10.43;;
30647;SDS011;17683;53.360;9.736;2022-11-15T05:33:37;14.18;;;10.00;;
30647;SDS011;17683;53.360;9.736;2022-11-15T05:38:44;16.67;;;11.25;;
30647;SDS011;17683;53.360;9.736;2022-11-15T05:41:12;17.02;;;11.50;;
30647;SDS011;17683;53.360;9.736;2022-11-15T05:43:39;18.85;;;11.60;;
30647;SDS011;17683;53.360;9.736;2022-11-15T05:46:06;14.35;;;10.23;;
30647;SDS011;17683;53.360;9.736;2022-11-15T05:48:34;17.85;;;11.13;;
30647;SDS011;17683;53.360;9.736;2022-11-15T05:51:01;18.27;;;10.95;;
30647;SDS011;17683;53.360;9.736;2022-11-15T05:53:29;17.30;;;11.98;;
30647;SDS011;17683;53.360;9.736;2022-11-15T05:55:55;15.45;;;11.25;;
30647;SDS011;17683;53.360;9.736;2022-11-15T05:58:21;18.23;;;11.57;;
30647;SDS011;17683;53.360;9.736;2022-11-15T06:00:47;19.13;;;11.65;;
30647;SDS011;17683;53.360;9.736;2022-11-15T06:03:13;18.42;;;11.93;;
30647;SDS011;17683;53.360;9.736;2022-11-15T06:05:39;16.90;;;11.27;;
30647;SDS011;17683;53.360;9.736;2022-11-15T06:08:05;14.88;;;10.13;;
30647;SDS011;17683;53.360;9.736;2022-11-15T06:10:31;20.90;;;12.38;;
30647;SDS011;17683;53.360;9.736;2022-11-15T06:13:01;18.50;;;10.55;;
30647;SDS011;17683;53.360;9.736;2022-11-15T06:15:29;15.75;;;10.40;;
30647;SDS011;17683;53.360;9.736;2022-11-15T06:17:58;18.98;;;11.25;;
30647;SDS011;17683;53.360;9.736;2022-11-15T06:20:25;13.15;;;10.80;;
30647;SDS011;17683;53.360;9.736;2022-11-15T06:22:55;19.52;;;11.63;;
30647;SDS011;17683;53.360;9.736;2022-11-15T06:25:22;14.10;;;11.52;;
30647;SDS011;17683;53.360;9.736;2022-11-15T06:27:52;18.00;;;11.65;;
30647;SDS011;17683;53.360;9.736;2022-11-15T06:30:19;17.63;;;11.15;;
30647;SDS011;17683;53.360;9.736;2022-11-15T06:32:45;17.85;;;11.48;;
30647;SDS011;17683;53.360;9.736;2022-11-15T06:35:10;17.90;;;11.95;;
30647;SDS011;17683;53.360;9.736;2022-11-15T06:37:36;19.23;;;12.25;;
30647;SDS011;17683;53.360;9.736;2022-11-15T06:40:02;16.33;;;10.82;;
30647;SDS011;17683;53.360;9.736;2022-11-15T06:42:28;16.35;;;10.63;;
30647;SDS011;17683;53.360;9.736;2022-11-15T06:44:53;16.73;;;11.10;;
30647;SDS011;17683;53.360;9.736;2022-11-15T06:47:19;14.13;;;10.57;;
30647;SDS011;17683;53.360;9.736;2022-11-15T06:49:45;15.57;;;11.95;;
30647;SDS011;17683;53.360;9.736;2022-11-15T06:52:10;16.50;;;11.18;;
30647;SDS011;17683;53.360;9.736;2022-11-15T06:54:36;14.18;;;10.80;;
30647;SDS011;17683;53.360;9.736;2022-11-15T06:57:03;17.35;;;11.38;;
30647;SDS011;17683;53.360;9.736;2022-11-15T06:59:29;15.90;;;11.18;;
30647;SDS011;17683;53.360;9.736;2022-11-15T07:01:55;13.48;;;10.55;;
30647;SDS011;17683;53.360;9.736;2022-11-15T07:04:20;22.48;;;13.32;;
30647;SDS011;17683;53.360;9.736;2022-11-15T07:06:46;16.95;;;11.80;;
30647;SDS011;17683;53.360;9.736;2022-11-15T07:09:13;15.93;;;11.68;;
30647;SDS011;17683;53.360;9.736;2022-11-15T07:11:39;13.93;;;10.80;;
30647;SDS011;17683;53.360;9.736;2022-11-15T07:14:04;15.13;;;11.30;;
30647;SDS011;17683;53.360;9.736;2022-11-15T07:16:30;21.00;;;12.38;;
30647;SDS011;17683;53.360;9.736;2022-11-15T07:18:56;17.85;;;11.93;;
30647;SDS011;17683;53.360;9.736;2022-11-15T07:21:22;18.52;;;11.13;;
30647;SDS011;17683;53.360;9.736;2022-11-15T07:23:47;17.92;;;11.63;;
30647;SDS011;17683;53.360;9.736;2022-11-15T07:26:13;17.65;;;11.60;;
30647;SDS011;17683;53.360;9.736;2022-11-15T07:28:39;16.08;;;10.40;;
30647;SDS011;17683;53.360;9.736;2022-11-15T07:31:05;19.02;;;11.25;;
30647;SDS011;17683;53.360;9.736;2022-11-15T07:33:32;16.38;;;11.45;;
30647;SDS011;17683;53.360;9.736;2022-11-15T07:35:59;17.23;;;10.55;;
30647;SDS011;17683;53.360;9.736;2022-11-15T07:38:26;17.40;;;11.48;;
30647;SDS011;17683;53.360;9.736;2022-11-15T07:40:56;16.27;;;11.80;;
30647;SDS011;17683;53.360;9.736;2022-11-15T07:43:23;16.58;;;11.48;;
30647;SDS011;17683;53.360;9.736;2022-11-15T07:45:49;22.38;;;12.60;;
30647;SDS011;17683;53.360;9.736;2022-11-15T07:48:15;13.13;;;10.57;;
30647;SDS011;17683;53.360;9.736;2022-11-15T07:50:41;15.45;;;10.85;;
30647;SDS011;17683;53.360;9.736;2022-11-15T07:53:09;17.33;;;10.68;;
30647;SDS011;17683;53.360;9.736;2022-11-15T07:55:36;16.55;;;11.20;;
30647;SDS011;17683;53.360;9.736;2022-11-15T07:58:04;18.60;;;9.88;;
30647;SDS011;17683;53.360;9.736;2022-11-15T08:00:32;15.10;;;10.70;;
30647;SDS011;17683;53.360;9.736;2022-11-15T08:03:16;15.15;;;11.05;;
30647;SDS011;17683;53.360;9.736;2022-11-15T08:05:42;17.63;;;10.50;;
30647;SDS011;17683;53.360;9.736;2022-11-15T08:08:14;16.25;;;9.77;;
30647;SDS011;17683;53.360;9.736;2022-11-15T08:10:40;13.60;;;9.80;;
30647;SDS011;17683;53.360;9.736;2022-11-15T08:13:07;12.32;;;8.85;;
30647;SDS011;17683;53.360;9.736;2022-11-15T08:15:34;17.65;;;9.32;;
30647;SDS011;17683;53.360;9.736;2022-11-15T08:18:02;12.07;;;9.30;;
30647;SDS011;17683;53.360;9.736;2022-11-15T08:20:30;14.10;;;9.85;;
30647;SDS011;17683;53.360;9.736;2022-11-15T08:22:57;11.88;;;8.40;;
30647;SDS011;17683;53.360;9.736;2022-11-15T08:25:23;12.80;;;8.70;;
30647;SDS011;17683;53.360;9.736;2022-11-15T08:27:54;17.80;;;10.23;;
30647;SDS011;17683;53.360;9.736;2022-11-15T08:30:21;15.43;;;9.25;;
30647;SDS011;17683;53.360;9.736;2022-11-15T08:32:47;16.30;;;10.32;;
30647;SDS011;17683;53.360;9.736;2022-11-15T08:35:14;13.48;;;9.50;;
30647;SDS011;17683;53.360;9.736;2022-11-15T08:37:39;11.23;;;8.38;;
30647;SDS011;17683;53.360;9.736;2022-11-15T08:40:05;11.38;;;8.52;;
30647;SDS011;17683;53.360;9.736;2022-11-15T08:42:32;12.23;;;8.68;;
30647;SDS011;17683;53.360;9.736;2022-11-15T08:44:57;11.15;;;8.82;;
30647;SDS011;17683;53.360;9.736;2022-11-15T08:47:23;10.68;;;8.23;;
30647;SDS011;17683;53.360;9.736;2022-11-15T08:49:49;12.00;;;8.25;;
30647;SDS011;17683;53.360;9.736;2022-11-15T08:52:15;12.23;;;8.50;;
30647;SDS011;17683;53.360;9.736;2022-11-15T08:54:40;12.15;;;8.63;;
30647;SDS011;17683;53.360;9.736;2022-11-15T08:57:06;10.07;;;7.45;;
30647;SDS011;17683;53.360;9.736;2022-11-15T08:59:34;12.30;;;8.02;;
30647;SDS011;17683;53.360;9.736;2022-11-15T09:02:01;11.77;;;8.45;;
30647;SDS011;17683;53.360;9.736;2022-11-15T09:04:27;10.65;;;8.15;;
30647;SDS011;17683;53.360;9.736;2022-11-15T09:06:53;8.85;;;6.85;;
30647;SDS011;17683;53.360;9.736;2022-11-15T09:09:18;10.20;;;6.43;;
30647;SDS011;17683;53.360;9.736;2022-11-15T09:11:44;13.48;;;8.02;;
30647;SDS011;17683;53.360;9.736;2022-11-15T09:14:10;10.20;;;6.97;;
30647;SDS011;17683;53.360;9.736;2022-11-15T09:16:37;9.98;;;7.43;;
30647;SDS011;17683;53.360;9.736;2022-11-15T09:19:02;11.93;;;7.85;;
30647;SDS011;17683;53.360;9.736;2022-11-15T09:21:28;12.70;;;7.45;;
30647;SDS011;17683;53.360;9.736;2022-11-15T09:23:55;9.68;;;6.68;;
30647;SDS011;17683;53.360;9.736;2022-11-15T09:26:21;11.50;;;7.50;;
30647;SDS011;17683;53.360;9.736;2022-11-15T09:28:46;9.75;;;7.25;;
30647;SDS011;17683;53.360;9.736;2022-11-15T09:31:12;10.48;;;6.30;;
30647;SDS011;17683;53.360;9.736;2022-11-15T09:33:38;11.70;;;7.45;;
30647;SDS011;17683;53.360;9.736;2022-11-15T09:36:05;11.18;;;7.40;;
30647;SDS011;17683;53.360;9.736;2022-11-15T09:38:33;10.55;;;7.05;;
30647;SDS011;17683;53.360;9.736;2022-11-15T09:49:24;10.95;;;7.60;;
30647;SDS011;17683;53.360;9.736;2022-11-15T09:51:51;14.98;;;7.55;;
30647;SDS011;17683;53.360;9.736;2022-11-15T09:54:29;10.20;;;7.70;;
30647;SDS011;17683;53.360;9.736;2022-11-15T09:59:50;10.15;;;7.82;;
30647;SDS011;17683;53.360;9.736;2022-11-15T10:05:03;11.43;;;7.78;;
30647;SDS011;17683;53.360;9.736;2022-11-15T10:08:17;8.75;;;6.53;;
30647;SDS011;17683;53.360;9.736;2022-11-15T10:13:10;11.70;;;6.93;;
30647;SDS011;17683;53.360;9.736;2022-11-15T10:15:44;11.77;;;6.78;;
30647;SDS011;17683;53.360;9.736;2022-11-15T10:18:14;11.65;;;6.72;;
30647;SDS011;17683;53.360;9.736;2022-11-15T10:21:20;11.93;;;7.35;;
30647;SDS011;17683;53.360;9.736;2022-11-15T10:23:54;7.60;;;6.57;;
30647;SDS011;17683;53.360;9.736;2022-11-15T10:26:20;9.93;;;7.13;;
30647;SDS011;17683;53.360;9.736;2022-11-15T10:28:48;11.65;;;7.60;;
30647;SDS011;17683;53.360;9.736;2022-11-15T10:31:21;9.38;;;6.88;;
30647;SDS011;17683;53.360;9.736;2022-11-15T10:33:49;9.93;;;7.30;;
30647;SDS011;17683;53.360;9.736;2022-11-15T10:36:17;13.75;;;7.38;;
30647;SDS011;17683;53.360;9.736;2022-11-15T10:41:15;9.98;;;7.05;;
30647;SDS011;17683;53.360;9.736;2022-11-15T10:43:42;11.45;;;6.85;;
30647;SDS011;17683;53.360;9.736;2022-11-15T10:46:18;9.02;;;6.32;;
30647;SDS011;17683;53.360;9.736;2022-11-15T10:48:46;8.85;;;7.05;;
30647;SDS011;17683;53.360;9.736;2022-11-15T10:51:22;9.05;;;7.35;;
30647;SDS011;17683;53.360;9.736;2022-11-15T10:53:54;8.50;;;6.80;;
30647;SDS011;17683;53.360;9.736;2022-11-15T10:56:24;10.23;;;7.13;;
30647;SDS011;17683;53.360;9.736;2022-11-15T10:58:53;7.90;;;6.22;;
30647;SDS011;17683;53.360;9.736;2022-11-15T11:01:25;6.90;;;5.35;;
30647;SDS011;17683;53.360;9.736;2022-11-15T11:04:00;9.68;;;5.68;;
30647;SDS011;17683;53.360;9.736;2022-11-15T11:06:32;10.02;;;5.55;;
30647;SDS011;17683;53.360;9.736;2022-11-15T11:09:23;9.32;;;5.15;;
30647;SDS011;17683;53.360;9.736;2022-11-15T11:11:55;7.55;;;5.07;;
30647;SDS011;17683;53.360;9.736;2022-11-15T11:14:22;6.82;;;5.07;;
30647;SDS011;17683;53.360;9.736;2022-11-15T11:17:02;7.85;;;5.68;;
30647;SDS011;17683;53.360;9.736;2022-11-15T11:22:35;6.70;;;5.30;;
30647;SDS011;17683;53.360;9.736;2022-11-15T11:25:14;8.73;;;5.88;;
30647;SDS011;17683;53.360;9.736;2022-11-15T11:33:42;7.97;;;5.57;;
30647;SDS011;17683;53.360;9.736;2022-11-15T12:00:29;8.50;;;5.63;;
30647;SDS011;17683;53.360;9.736;2022-11-15T12:03:02;8.40;;;5.60;;
30647;SDS011;17683;53.360;9.736;2022-11-15T12:08:33;11.27;;;6.07;;
30647;SDS011;17683;53.360;9.736;2022-11-15T12:11:11;7.68;;;5.60;;
30647;SDS011;17683;53.360;9.736;2022-11-15T12:13:48;9.05;;;6.22;;
30647;SDS011;17683;53.360;9.736;2022-11-15T12:16:28;9.10;;;6.10;;
30647;SDS011;17683;53.360;9.736;2022-11-15T12:18:56;10.63;;;6.70;;
30647;SDS011;17683;53.360;9.736;2022-11-15T12:24:05;6.22;;;5.07;;
30647;SDS011;17683;53.360;9.736;2022-11-15T12:26:41;10.23;;;5.15;;
30647;SDS011;17683;53.360;9.736;2022-11-15T12:29:16;8.82;;;5.03;;
30647;SDS011;17683;53.360;9.736;2022-11-15T12:32:17;6.00;;;4.30;;
30647;SDS011;17683;53.360;9.736;2022-11-15T12:34:50;5.15;;;3.95;;
30647;SDS011;17683;53.360;9.736;2022-11-15T12:46:05;6.50;;;4.00;;
30647;SDS011;17683;53.360;9.736;2022-11-15T12:51:02;4.88;;;3.70;;
30647;SDS011;17683;53.360;9.736;2022-11-15T12:53:29;5.75;;;4.00;;
30647;SDS011;17683;53.360;9.736;2022-11-15T12:56:09;6.80;;;4.38;;
30647;SDS011;17683;53.360;9.736;2022-11-15T13:12:11;5.80;;;3.63;;
30647;SDS011;17683;53.360;9.736;2022-11-15T13:14:59;4.55;;;3.55;;
30647;SDS011;17683;53.360;9.736;2022-11-15T13:22:32;6.22;;;3.65;;
30647;SDS011;17683;53.360;9.736;2022-11-15T13:28:02;4.55;;;3.08;;
30647;SDS011;17683;53.360;9.736;2022-11-15T13:30:41;4.10;;;3.35;;
30647;SDS011;17683;53.360;9.736;2022-11-15T13:36:01;5.65;;;4.15;;
30647;SDS011;17683;53.360;9.736;2022-11-15T13:38:58;4.82;;;3.53;;
30647;SDS011;17683;53.360;9.736;2022-11-15T13:41:27;11.63;;;3.95;;
30647;SDS011;17683;53.360;9.736;2022-11-15T13:44:00;5.00;;;3.70;;
30647;SDS011;17683;53.360;9.736;2022-11-15T13:46:30;6.32;;;4.10;;
30647;SDS011;17683;53.360;9.736;2022-11-15T13:49:19;4.38;;;3.13;;
30647;SDS011;17683;53.360;9.736;2022-11-15T13:51:53;4.60;;;3.53;;
30647;SDS011;17683;53.360;9.736;2022-11-15T13:57:12;4.45;;;3.53;;
30647;SDS011;17683;53.360;9.736;2022-11-15T13:59:47;4.32;;;2.97;;
30647;SDS011;17683;53.360;9.736;2022-11-15T14:02:19;5.25;;;3.33;;
30647;SDS011;17683;53.360;9.736;2022-11-15T14:04:58;7.95;;;4.43;;
30647;SDS011;17683;53.360;9.736;2022-11-15T14:07:39;6.22;;;4.03;;
30647;SDS011;17683;53.360;9.736;2022-11-15T14:13:04;8.88;;;5.18;;
30647;SDS011;17683;53.360;9.736;2022-11-15T14:15:51;6.45;;;4.72;;
30647;SDS011;17683;53.360;9.736;2022-11-15T14:21:11;7.90;;;5.00;;
30647;SDS011;17683;53.360;9.736;2022-11-15T14:23:37;7.68;;;4.85;;
30647;SDS011;17683;53.360;9.736;2022-11-15T14:26:03;9.82;;;4.88;;
30647;SDS011;17683;53.360;9.736;2022-11-15T14:30:58;9.30;;;4.80;;
30647;SDS011;17683;53.360;9.736;2022-11-15T14:33:29;9.68;;;5.40;;
30647;SDS011;17683;53.360;9.736;2022-11-15T14:36:01;5.88;;;4.75;;
30647;SDS011;17683;53.360;9.736;2022-11-15T14:38:44;7.28;;;5.15;;
30647;SDS011;17683;53.360;9.736;2022-11-15T14:41:29;8.43;;;5.07;;
30647;SDS011;17683;53.360;9.736;2022-11-15T14:43:57;7.10;;;5.00;;
30647;SDS011;17683;53.360;9.736;2022-11-15T14:46:23;9.07;;;5.50;;
30647;SDS011;17683;53.360;9.736;2022-11-15T14:48:48;7.07;;;4.90;;
30647;SDS011;17683;53.360;9.736;2022-11-15T14:51:18;7.35;;;5.28;;
30647;SDS011;17683;53.360;9.736;2022-11-15T14:53:44;11.73;;;5.57;;
30647;SDS011;17683;53.360;9.736;2022-11-15T14:56:11;8.02;;;5.88;;
30647;SDS011;17683;53.360;9.736;2022-11-15T14:58:37;6.15;;;4.57;;
30647;SDS011;17683;53.360;9.736;2022-11-15T15:01:25;7.07;;;4.68;;
30647;SDS011;17683;53.360;9.736;2022-11-15T15:03:50;7.15;;;4.63;;
30647;SDS011;17683;53.360;9.736;2022-11-15T15:06:17;5.35;;;4.78;;
30647;SDS011;17683;53.360;9.736;2022-11-15T15:08:43;6.40;;;4.68;;
30647;SDS011;17683;53.360;9.736;2022-11-15T15:11:14;6.63;;;4.55;;
30647;SDS011;17683;53.360;9.736;2022-11-15T15:13:43;7.18;;;4.60;;
30647;SDS011;17683;53.360;9.736;2022-11-15T15:16:09;6.15;;;4.53;;
30647;SDS011;17683;53.360;9.736;2022-11-15T15:18:35;6.07;;;4.38;;
30647;SDS011;17683;53.360;9.736;2022-11-15T15:21:00;10.10;;;4.75;;
30647;SDS011;17683;53.360;9.736;2022-11-15T15:23:32;7.78;;;4.60;;
30647;SDS011;17683;53.360;9.736;2022-11-15T15:25:58;6.18;;;4.35;;
30647;SDS011;17683;53.360;9.736;2022-11-15T15:28:24;7.00;;;3.83;;
30647;SDS011;17683;53.360;9.736;2022-11-15T15:30:50;6.47;;;4.20;;
30647;SDS011;17683;53.360;9.736;2022-11-15T15:33:16;5.93;;;3.97;;
30647;SDS011;17683;53.360;9.736;2022-11-15T15:35:42;6.35;;;4.20;;
30647;SDS011;17683;53.360;9.736;2022-11-15T15:38:10;6.43;;;4.35;;
30647;SDS011;17683;53.360;9.736;2022-11-15T15:40:37;5.88;;;4.03;;
30647;SDS011;17683;53.360;9.736;2022-11-15T15:43:03;6.70;;;4.10;;
30647;SDS011;17683;53.360;9.736;2022-11-15T15:45:28;7.90;;;4.50;;
30647;SDS011;17683;53.360;9.736;2022-11-15T15:48:02;6.72;;;4.28;;
30647;SDS011;17683;53.360;9.736;2022-11-15T15:50:29;10.00;;;5.07;;
30647;SDS011;17683;53.360;9.736;2022-11-15T15:52:58;9.70;;;5.00;;
30647;SDS011;17683;53.360;9.736;2022-11-15T15:55:26;8.27;;;4.75;;
30647;SDS011;17683;53.360;9.736;2022-11-15T15:57:52;7.35;;;4.70;;
30647;SDS011;17683;53.360;9.736;2022-11-15T16:00:18;6.18;;;4.50;;
30647;SDS011;17683;53.360;9.736;2022-11-15T16:02:45;6.93;;;4.13;;
30647;SDS011;17683;53.360;9.736;2022-11-15T16:05:11;10.07;;;5.10;;
30647;SDS011;17683;53.360;9.736;2022-11-15T16:07:38;6.15;;;4.53;;
30647;SDS011;17683;53.360;9.736;2022-11-15T16:12:59;7.13;;;5.32;;
30647;SDS011;17683;53.360;9.736;2022-11-15T16:15:26;9.45;;;5.57;;
30647;SDS011;17683;53.360;9.736;2022-11-15T16:17:54;8.25;;;5.15;;
30647;SDS011;17683;53.360;9.736;2022-11-15T16:22:46;8.30;;;5.28;;
30647;SDS011;17683;53.360;9.736;2022-11-15T16:25:12;9.45;;;5.95;;
30647;SDS011;17683;53.360;9.736;2022-11-15T16:27:38;8.80;;;6.00;;
30647;SDS011;17683;53.360;9.736;2022-11-15T16:30:19;7.05;;;5.70;;
30647;SDS011;17683;53.360;9.736;2022-11-15T16:32:46;9.05;;;6.50;;
30647;SDS011;17683;53.360;9.736;2022-11-15T16:35:12;9.65;;;6.32;;
30647;SDS011;17683;53.360;9.736;2022-11-15T16:37:38;13.18;;;6.40;;
30647;SDS011;17683;53.360;9.736;2022-11-15T16:40:17;9.52;;;7.00;;
30647;SDS011;17683;53.360;9.736;2022-11-15T16:42:49;8.77;;;7.13;;
30647;SDS011;17683;53.360;9.736;2022-11-15T16:45:15;9.15;;;6.03;;
30647;SDS011;17683;53.360;9.736;2022-11-15T16:47:41;10.30;;;6.15;;
30647;SDS011;17683;53.360;9.736;2022-11-15T16:50:13;8.38;;;5.80;;
30647;SDS011;17683;53.360;9.736;2022-11-15T16:52:53;10.18;;;5.90;;
30647;SDS011;17683;53.360;9.736;2022-11-15T16:55:24;7.43;;;6.07;;
30647;SDS011;17683;53.360;9.736;2022-11-15T16:57:51;7.43;;;6.28;;
30647;SDS011;17683;53.360;9.736;2022-11-15T17:00:18;8.85;;;6.22;;
30647;SDS011;17683;53.360;9.736;2022-11-15T17:02:45;8.65;;;5.45;;
30647;SDS011;17683;53.360;9.736;2022-11-15T17:05:12;11.32;;;6.72;;